AirNav   Everest Fuels
 
 892 users online  

4NY4 Cross' Farm Airport
Delmar, New York, USA

GOING TO DELMAR?


FAA INFORMATION EFFECTIVE 21 MAY 2020

Location

FAA Identifier: 4NY4
Lat/Long: 42-33-34.2890N 073-46-19.4380W
42-33.571483N 073-46.323967W
42.5595247,-73.7720661
(estimated)
Elevation: 55 ft. / 17 m (estimated)
Variation: 14W (1985)
From city: 4 miles NW of DELMAR, NY
Time zone: UTC -4 (UTC -5 during Standard Time)
Zip code: 12158

Airport Operations

Airport use: Private use. Permission required prior to landing
Activation date: 02/1976
Control tower: no
ARTCC: BOSTON CENTER
FSS: BURLINGTON FLIGHT SERVICE STATION
Attendance: UNATNDD
Wind indicator: no
Segmented circle: no

Airport Communications

WX ASOS at ALB (11 nm N): PHONE 518-464-6423
WX AWOS-3 at 1B1 (16 nm S): 133.525 (518-828-2577)
WX AWOS-3 at SCH (19 nm N): 119.275 (518-399-6586)

Nearby radio navigation aids

VOR radial/distance  VOR name  Freq  Var
ALBr186/11.3ALBANY VORTAC115.3013W
CAMr230/32.2CAMBRIDGE VOR/DME115.0014W
CTRr307/39.8CHESTER VOR/DME115.1013W

 
NDB name  Hdg/Dist  Freq  Var  ID
PHILMONT006/18.527213WPFH .--. ..-. ....
HUNTER172/19.135614WHEU .... . ..-
GREAT BARRINGTON338/27.939514WGBR --. -... .-.
JOHNSTOWN151/36.152314WJJH .--- .--- ....

Airport Services

Runway Information

Runway 1/19

Dimensions: 1500 x 100 ft. / 457 x 30 m
Surface: turf
RUNWAY 1  RUNWAY 19
Traffic pattern: leftleft

Airport Ownership and Management from official FAA records

Ownership: Privately-owned
Owner: JOHN N. CROSS
RT 144
SELKIRK, NY 12158
Phone 518-767-3056

Airport Operational Statistics

Aircraft based on the field: 2
Single engine airplanes: 2
    

Additional Remarks

FOR CD CTC ALBANY APCH AT 518-862-2299.

Instrument Procedures

There are no published instrument procedures at 4NY4.

Some nearby airports with instrument procedures:

4B0 - South Albany Airport (3 nm W)
KALB - Albany International Airport (11 nm N)
1B1 - Columbia County Airport (16 nm S)
KSCH - Schenectady County Airport (19 nm N)
KPSF - Pittsfield Municipal Airport (23 nm E)
 
Loc | Ops | Rwys | IFR | FBO | Links
Com | Nav | Svcs | Stats | Notes
Area around 4NY4 (Cross' Farm Airport)
 
Road maps at: MapQuest Bing Google
 
Aerial photo
No photo
 
Sectional chart

 
Airport distance calculator
Flying to Cross' Farm Airport? Find the distance to fly.

From to 4NY4

Sunrise and sunset
Times for 24-May-2020
 Local
(UTC-4)
 Zulu
(UTC)
Morning civil twilight04:5208:52
Sunrise05:2509:25
Sunset20:1900:19
Evening civil twilight20:5200:52

Current date and time
Zulu (UTC)  25-May-2020 02:33:31
Local (UTC-4)  24-May-2020 22:33:31
 
METAR
KALB 
11nm N 
250151Z 14008KT 10SM FEW250 21/05 A3017 RMK AO2 SLP216 T02060050
KSCH 
19nm N 
250047Z 18004KT 15SM CLR 22/07 A3015 RMK LAST
KPSF 
23nm E 
250154Z AUTO 13010G15KT 10SM CLR 16/04 A3021 RMK AO2 SLP214 T01610039
TAF
KALB 
11nm N 
241723Z 2418/2518 15003KT P6SM FEW080 FEW200 SCT250 FM250600 16005KT P6SM BKN015 FM250900 16002KT P6SM SCT009 OVC015 FM251400 17009KT P6SM BKN140
NOTAMs
Click for the latest NOTAMs
NOTAMs are issued by the DoD/FAA and will open in a separate window not controlled by AirNav.

 

 
 

Would you like to see your business listed on this page?

 If your business provides an interesting product or service to pilots, flight crews, aircraft, or users of the Cross' Farm Airport, you should consider listing it here.  To start the listing process, click on the button below
 
Add a business
 

Other Pages about Cross' Farm Airport

Update a link
 
Copyright © AirNav, LLC. All rights reserved. Privacy Policy  Contact